createdAt,value
2023-01-23T00:01:33.657Z,9.10
2023-01-23T00:04:01.998Z,8.68
2023-01-23T00:06:29.336Z,9.30
2023-01-23T00:08:57.915Z,9.32
2023-01-23T00:11:28.370Z,8.90
2023-01-23T00:13:57.261Z,8.93
2023-01-23T00:16:26.675Z,8.80
2023-01-23T00:18:54.349Z,8.30
2023-01-23T00:21:24.735Z,8.48
2023-01-23T00:23:54.969Z,8.73
2023-01-23T00:26:25.358Z,8.43
2023-01-23T00:28:53.997Z,8.95
2023-01-23T00:31:27.241Z,8.48
2023-01-23T00:34:00.457Z,8.32
2023-01-23T00:36:30.874Z,8.40
2023-01-23T00:38:58.499Z,8.90
2023-01-23T00:41:25.958Z,8.57
2023-01-23T00:43:53.752Z,8.85
2023-01-23T00:46:22.107Z,8.25
2023-01-23T00:48:50.940Z,8.20
2023-01-23T00:51:18.740Z,8.30
2023-01-23T00:53:46.714Z,8.27
2023-01-23T00:56:14.866Z,7.93
2023-01-23T00:58:45.011Z,8.13
2023-01-23T01:01:14.428Z,8.23
2023-01-23T01:03:42.760Z,8.07
2023-01-23T01:06:10.836Z,8.40
2023-01-23T01:08:39.340Z,8.55
2023-01-23T01:11:07.137Z,7.40
2023-01-23T01:13:35.507Z,7.93
2023-01-23T01:16:03.024Z,7.57
2023-01-23T01:18:30.592Z,7.22
2023-01-23T01:20:58.488Z,7.80
2023-01-23T01:23:27.275Z,7.80
2023-01-23T01:25:59.120Z,7.80
2023-01-23T01:28:30.377Z,7.35
2023-01-23T01:30:58.184Z,7.50
2023-01-23T01:33:25.938Z,7.53
2023-01-23T01:35:53.422Z,7.38
2023-01-23T01:38:20.971Z,7.60
2023-01-23T01:40:48.229Z,7.57
2023-01-23T01:43:22.717Z,7.25
2023-01-23T01:48:50.162Z,6.85
2023-01-23T01:51:29.782Z,7.78
2023-01-23T01:54:14.436Z,6.82
2023-01-23T01:56:58.618Z,7.50
2023-01-23T01:59:29.931Z,7.15
2023-01-23T02:02:05.237Z,6.70
2023-01-23T02:04:38.481Z,6.82
2023-01-23T02:07:20.922Z,7.45
2023-01-23T02:09:49.971Z,6.32
2023-01-23T02:12:17.740Z,6.72
2023-01-23T02:14:45.675Z,7.28
2023-01-23T02:17:13.176Z,6.85
2023-01-23T02:19:54.716Z,6.82
2023-01-23T02:22:55.755Z,6.80
2023-01-23T02:25:26.373Z,6.70
2023-01-23T02:27:54.221Z,6.22
2023-01-23T02:30:22.585Z,6.47
2023-01-23T02:32:49.969Z,6.78
2023-01-23T02:35:30.655Z,6.60
2023-01-23T02:38:03.119Z,6.97
2023-01-23T02:40:37.177Z,6.25
2023-01-23T02:43:06.167Z,6.20
2023-01-23T02:45:33.882Z,6.75
2023-01-23T02:48:01.633Z,6.30
2023-01-23T02:50:29.497Z,6.72
2023-01-23T02:52:58.463Z,7.03
2023-01-23T02:55:29.615Z,6.50
2023-01-23T02:58:19.999Z,6.68
2023-01-23T03:00:47.900Z,6.43
2023-01-23T03:03:16.004Z,7.13
2023-01-23T03:05:43.633Z,6.65
2023-01-23T03:08:10.867Z,6.45
2023-01-23T03:10:38.420Z,6.30
2023-01-23T03:13:07.379Z,6.47
2023-01-23T03:15:38.315Z,6.18
2023-01-23T03:18:05.978Z,6.55
2023-01-23T03:20:40.612Z,6.07
2023-01-23T03:23:08.686Z,6.63
2023-01-23T03:25:36.286Z,6.47
2023-01-23T03:28:03.715Z,6.22
2023-01-23T03:30:32.654Z,6.50
2023-01-23T03:32:59.945Z,6.43
2023-01-23T03:35:27.520Z,6.07
2023-01-23T03:37:54.934Z,6.40
2023-01-23T03:40:43.585Z,6.05
2023-01-23T03:43:10.905Z,6.75
2023-01-23T03:45:38.427Z,6.60
2023-01-23T03:48:05.865Z,6.45
2023-01-23T03:50:33.438Z,6.53
2023-01-23T03:53:00.842Z,6.93
2023-01-23T03:55:28.401Z,6.53
2023-01-23T03:57:55.673Z,6.22
2023-01-23T04:00:23.573Z,6.82
2023-01-23T04:02:50.881Z,6.50
2023-01-23T04:05:18.737Z,6.93
2023-01-23T04:07:46.035Z,6.32
2023-01-23T04:10:13.703Z,7.00
2023-01-23T04:12:43.651Z,6.57
2023-01-23T04:15:12.256Z,6.10
2023-01-23T04:17:42.011Z,6.40
2023-01-23T04:20:11.275Z,6.28
2023-01-23T04:22:38.862Z,6.55
2023-01-23T04:25:07.167Z,6.85
2023-01-23T04:27:34.716Z,6.63
2023-01-23T04:30:03.605Z,6.57
2023-01-23T04:32:31.009Z,6.80
2023-01-23T04:34:58.540Z,6.50
2023-01-23T04:37:25.871Z,6.55
2023-01-23T04:39:53.537Z,6.85
2023-01-23T04:42:20.937Z,6.40
2023-01-23T04:44:48.478Z,6.68
2023-01-23T04:47:15.724Z,6.35
2023-01-23T04:49:43.454Z,7.40
2023-01-23T04:52:10.797Z,7.05
2023-01-23T04:54:38.344Z,6.53
2023-01-23T04:57:05.705Z,6.13
2023-01-23T04:59:33.289Z,6.22
2023-01-23T05:02:02.285Z,6.68
2023-01-23T05:04:29.931Z,7.00
2023-01-23T05:06:57.159Z,6.32
2023-01-23T05:09:24.692Z,6.32
2023-01-23T05:11:52.084Z,6.47
2023-01-23T05:14:19.810Z,6.95
2023-01-23T05:16:47.047Z,6.65
2023-01-23T05:19:15.002Z,6.53
2023-01-23T05:21:42.286Z,6.78
2023-01-23T05:24:10.630Z,6.72
2023-01-23T05:26:37.969Z,6.35
2023-01-23T05:29:06.085Z,6.15
2023-01-23T05:31:33.554Z,6.35
2023-01-23T05:34:01.190Z,6.50
2023-01-23T05:36:28.441Z,6.60
2023-01-23T05:38:56.095Z,7.07
2023-01-23T05:41:25.559Z,6.03
2023-01-23T05:43:53.307Z,6.55
2023-01-23T05:46:20.623Z,6.30
2023-01-23T05:48:50.515Z,6.70
2023-01-23T05:51:18.775Z,6.57
2023-01-23T05:53:47.835Z,5.97
2023-01-23T05:56:15.734Z,6.53
2023-01-23T05:58:43.844Z,6.80
2023-01-23T06:01:11.105Z,6.30
2023-01-23T06:03:38.769Z,6.25
2023-01-23T06:06:06.586Z,6.85
2023-01-23T06:08:34.206Z,6.68
2023-01-23T06:11:01.671Z,6.70
2023-01-23T06:13:29.883Z,6.60
2023-01-23T06:15:57.570Z,7.25
2023-01-23T06:18:25.467Z,7.30
2023-01-23T06:20:58.745Z,6.78
2023-01-23T06:23:26.598Z,6.65
2023-01-23T06:25:53.976Z,6.82
2023-01-23T06:28:22.428Z,7.30
2023-01-23T06:30:49.718Z,8.27
2023-01-23T06:33:17.317Z,8.10
2023-01-23T06:35:45.226Z,10.15
2023-01-23T06:38:12.866Z,10.30
2023-01-23T06:40:40.130Z,8.60
2023-01-23T06:43:08.053Z,9.25
2023-01-23T06:45:35.331Z,10.80
2023-01-23T06:48:02.955Z,9.73
2023-01-23T06:50:30.907Z,10.35
2023-01-23T06:52:58.456Z,9.57
2023-01-23T06:55:25.786Z,9.77
2023-01-23T06:57:53.293Z,9.27
2023-01-23T07:00:21.143Z,10.02
2023-01-23T07:02:48.923Z,9.90
2023-01-23T07:05:16.414Z,9.25
2023-01-23T07:07:44.014Z,9.27
2023-01-23T07:10:12.217Z,9.98
2023-01-23T07:12:39.780Z,8.80
2023-01-23T07:15:07.679Z,9.20
2023-01-23T07:17:36.355Z,8.68
2023-01-23T07:20:04.609Z,8.65
2023-01-23T07:22:32.249Z,9.27
2023-01-23T07:24:59.575Z,9.32
2023-01-23T07:27:27.632Z,9.05
2023-01-23T07:29:56.357Z,9.18
2023-01-23T07:32:23.950Z,8.75
2023-01-23T07:34:53.111Z,9.02
2023-01-23T07:37:20.722Z,8.38
2023-01-23T07:39:49.032Z,8.85
2023-01-23T07:42:16.561Z,9.23
2023-01-23T07:44:43.942Z,8.68
2023-01-23T07:47:11.765Z,8.45
2023-01-23T07:49:38.987Z,8.10
2023-01-23T07:52:06.652Z,7.93
2023-01-23T07:54:33.918Z,8.40
2023-01-23T07:57:01.524Z,8.85
2023-01-23T07:59:28.827Z,8.82
2023-01-23T08:01:56.486Z,7.90
2023-01-23T08:04:23.780Z,8.35
2023-01-23T08:06:51.365Z,8.25
2023-01-23T08:09:18.690Z,8.07
2023-01-23T08:11:46.285Z,8.50
2023-01-23T08:14:13.606Z,8.40
2023-01-23T08:16:41.197Z,8.77
2023-01-23T08:19:08.538Z,8.05
2023-01-23T08:21:36.187Z,7.97
2023-01-23T08:24:04.823Z,8.05
2023-01-23T08:26:33.350Z,8.35
2023-01-23T08:29:01.928Z,8.60
2023-01-23T08:31:29.786Z,8.20
2023-01-23T08:33:57.523Z,8.05
2023-01-23T08:36:25.326Z,7.70
2023-01-23T08:38:52.719Z,8.15
2023-01-23T08:41:20.308Z,8.23
2023-01-23T08:43:47.701Z,8.23
2023-01-23T08:46:15.366Z,7.75
2023-01-23T08:48:42.699Z,7.57
2023-01-23T08:51:13.497Z,7.97
2023-01-23T08:53:41.702Z,7.60
2023-01-23T08:56:18.181Z,7.28
2023-01-23T08:58:46.301Z,7.93
2023-01-23T09:01:15.938Z,7.85
2023-01-23T09:03:43.420Z,7.85
2023-01-23T09:06:16.129Z,8.05
2023-01-23T09:08:43.594Z,7.05
2023-01-23T09:11:12.860Z,7.95
2023-01-23T09:13:40.301Z,7.75
2023-01-23T09:16:08.641Z,7.50
2023-01-23T09:18:36.519Z,7.78
2023-01-23T09:21:08.973Z,7.82
2023-01-23T09:23:36.404Z,7.25
2023-01-23T09:26:09.940Z,8.05
2023-01-23T09:28:38.651Z,7.95
2023-01-23T09:31:08.371Z,7.97
2023-01-23T09:33:36.179Z,7.88
2023-01-23T09:36:05.321Z,7.43
2023-01-23T09:38:33.965Z,7.63
2023-01-23T09:41:15.059Z,8.05
2023-01-23T09:43:55.118Z,7.95
2023-01-23T09:46:28.594Z,7.13
2023-01-23T09:49:04.647Z,7.38
2023-01-23T09:51:38.129Z,7.47
2023-01-23T09:54:27.931Z,7.13
2023-01-23T09:56:57.477Z,7.18
2023-01-23T09:59:34.549Z,7.47
2023-01-23T10:02:02.659Z,7.15
2023-01-23T10:04:31.780Z,8.18
2023-01-23T10:07:11.390Z,7.43
2023-01-23T10:09:52.371Z,7.32
2023-01-23T10:12:28.885Z,7.18
2023-01-23T10:15:14.447Z,7.00
2023-01-23T10:17:59.428Z,7.13
2023-01-23T10:23:40.756Z,7.60
2023-01-23T10:26:19.952Z,7.50
2023-01-23T10:28:48.655Z,7.15
2023-01-23T10:31:34.847Z,7.90
2023-01-23T10:34:39.415Z,7.53
2023-01-23T10:37:21.693Z,7.00
2023-01-23T10:40:00.869Z,7.80
2023-01-23T10:42:28.453Z,7.18
2023-01-23T10:44:56.046Z,7.50
2023-01-23T10:47:34.434Z,7.38
2023-01-23T10:50:03.576Z,7.05
2023-01-23T10:52:35.290Z,7.43
2023-01-23T10:55:06.255Z,7.57
2023-01-23T10:57:48.324Z,7.00
2023-01-23T11:00:36.309Z,7.15
2023-01-23T11:03:26.402Z,6.88
2023-01-23T11:05:56.014Z,7.18
2023-01-23T11:08:32.326Z,7.22
2023-01-23T11:11:22.569Z,6.72
2023-01-23T11:14:03.862Z,6.30
2023-01-23T11:16:31.901Z,7.10
2023-01-23T11:19:25.215Z,7.00
2023-01-23T11:21:58.547Z,7.35
2023-01-23T11:24:38.348Z,7.00
2023-01-23T11:27:20.973Z,6.40
2023-01-23T11:30:15.447Z,6.78
2023-01-23T11:32:51.526Z,6.93
2023-01-23T11:35:25.863Z,6.68
2023-01-23T11:37:56.962Z,6.90
2023-01-23T11:40:24.564Z,6.93
2023-01-23T11:42:54.639Z,6.82
2023-01-23T11:45:53.815Z,7.05
2023-01-23T11:48:27.354Z,6.60
2023-01-23T11:51:10.720Z,7.65
2023-01-23T11:53:47.859Z,6.63
2023-01-23T11:56:33.444Z,7.07
2023-01-23T11:59:36.338Z,6.85
2023-01-23T12:02:12.761Z,6.80
2023-01-23T12:04:58.275Z,6.80
2023-01-23T12:07:26.868Z,7.07
2023-01-23T12:10:05.128Z,7.13
2023-01-23T12:12:54.205Z,6.22
2023-01-23T12:15:44.951Z,6.72
2023-01-23T12:18:30.746Z,6.53
2023-01-23T12:21:26.789Z,7.03
2023-01-23T12:24:03.235Z,7.03
2023-01-23T12:26:31.618Z,6.70
2023-01-23T12:29:44.186Z,7.20
2023-01-23T12:32:35.727Z,7.20
2023-01-23T12:35:06.058Z,7.00
2023-01-23T12:37:50.718Z,7.10
2023-01-23T12:40:30.788Z,6.65
2023-01-23T12:43:07.189Z,6.55
2023-01-23T12:45:37.749Z,7.25
2023-01-23T12:48:13.831Z,6.45
2023-01-23T12:53:17.845Z,6.65
2023-01-23T12:56:12.667Z,6.75
2023-01-23T12:59:04.510Z,6.60
2023-01-23T13:01:32.416Z,6.53
2023-01-23T13:04:42.585Z,6.25
2023-01-23T13:07:21.339Z,6.68
2023-01-23T13:10:50.853Z,6.43
2023-01-23T13:13:20.326Z,7.20
2023-01-23T13:16:02.980Z,6.75
2023-01-23T13:18:50.504Z,7.10
2023-01-23T13:21:37.056Z,6.70
2023-01-23T13:24:43.407Z,6.45
2023-01-23T13:27:40.024Z,6.22
2023-01-23T13:30:26.052Z,6.20
2023-01-23T13:33:00.757Z,6.72
2023-01-23T13:35:40.183Z,6.68
2023-01-23T13:38:22.747Z,6.78
2023-01-23T13:41:08.182Z,6.55
2023-01-23T13:43:42.029Z,6.80
2023-01-23T13:46:28.456Z,6.53
2023-01-23T14:21:52.444Z,6.70
2023-01-23T14:24:26.393Z,6.55
2023-01-23T14:27:07.232Z,6.45
2023-01-23T14:29:36.423Z,6.63
2023-01-23T14:32:04.036Z,7.00
2023-01-23T14:34:39.404Z,6.55
2023-01-23T14:39:40.886Z,6.80
2023-01-23T14:42:25.234Z,6.00
2023-01-23T14:44:55.446Z,7.35
2023-01-23T14:47:27.339Z,6.57
2023-01-23T14:49:56.386Z,7.28
2023-01-23T14:52:29.461Z,6.88
2023-01-23T14:55:01.179Z,7.80
2023-01-23T14:57:36.064Z,8.77
2023-01-23T15:00:04.392Z,8.75
2023-01-23T15:02:35.009Z,9.38
2023-01-23T15:05:11.933Z,9.98
2023-01-23T15:07:43.990Z,8.95
2023-01-23T15:10:34.469Z,10.40
2023-01-23T15:13:13.352Z,9.70
2023-01-23T15:15:46.603Z,9.85
2023-01-23T15:18:24.076Z,10.13
2023-01-23T15:20:57.744Z,9.77
2023-01-23T15:23:25.575Z,9.60
2023-01-23T15:26:08.944Z,9.45
2023-01-23T15:28:40.942Z,9.57
2023-01-23T15:31:29.247Z,9.60
2023-01-23T15:34:18.554Z,8.85
2023-01-23T15:36:46.074Z,8.90
2023-01-23T15:39:24.560Z,8.73
2023-01-23T15:41:55.602Z,8.85
2023-01-23T15:44:26.415Z,8.82
2023-01-23T15:46:56.587Z,8.52
2023-01-23T15:49:26.193Z,8.50
2023-01-23T15:52:02.850Z,8.18
2023-01-23T15:54:35.995Z,7.57
2023-01-23T15:57:08.770Z,7.72
2023-01-23T15:59:37.231Z,7.13
2023-01-23T16:02:29.175Z,7.43
2023-01-23T16:04:57.812Z,7.22
2023-01-23T16:07:31.454Z,8.07
2023-01-23T16:09:58.754Z,7.70
2023-01-23T16:12:28.932Z,7.95
2023-01-23T16:14:57.402Z,7.38
2023-01-23T16:17:25.107Z,6.40
2023-01-23T16:19:54.271Z,7.15
2023-01-23T16:22:29.220Z,6.72
2023-01-23T16:24:58.172Z,7.18
2023-01-23T16:27:27.594Z,7.13
2023-01-23T16:29:56.106Z,7.18
2023-01-23T16:32:24.997Z,7.10
2023-01-23T16:34:52.623Z,6.65
2023-01-23T16:37:20.244Z,6.55
2023-01-23T16:39:47.854Z,6.57
2023-01-23T16:42:19.317Z,7.22
2023-01-23T16:44:46.623Z,6.85
2023-01-23T16:47:14.387Z,6.22
2023-01-23T16:49:57.048Z,6.18
2023-01-23T16:52:25.539Z,6.40
2023-01-23T16:54:54.291Z,6.57
2023-01-23T16:57:22.189Z,6.00
2023-01-23T16:59:50.481Z,6.88
2023-01-23T17:02:30.977Z,6.40
2023-01-23T17:04:58.492Z,6.72
2023-01-23T17:07:26.031Z,6.25
2023-01-23T17:09:53.405Z,5.93
2023-01-23T17:12:27.703Z,6.70
2023-01-23T17:14:55.827Z,6.45
2023-01-23T17:17:31.779Z,6.20
2023-01-23T17:20:01.171Z,6.10
2023-01-23T17:22:30.522Z,6.50
2023-01-23T17:24:58.191Z,5.75
2023-01-23T17:27:25.737Z,6.05
2023-01-23T17:29:53.025Z,6.70
2023-01-23T17:32:27.276Z,5.88
2023-01-23T17:34:55.000Z,5.82
2023-01-23T17:37:23.515Z,6.05
2023-01-23T17:39:51.312Z,5.57
2023-01-23T17:42:19.071Z,6.15
2023-01-23T17:44:47.399Z,5.80
2023-01-23T17:47:15.744Z,6.45
2023-01-23T17:49:52.009Z,6.18
2023-01-23T17:52:21.713Z,5.72
2023-01-23T17:54:49.668Z,6.05
2023-01-23T17:57:17.197Z,6.03
2023-01-23T17:59:45.177Z,5.75
2023-01-23T18:02:28.144Z,5.90
2023-01-23T18:04:56.042Z,5.50
2023-01-23T18:07:24.071Z,5.80
2023-01-23T18:09:52.532Z,6.00
2023-01-23T18:12:33.020Z,6.47
2023-01-23T18:15:10.046Z,6.22
2023-01-23T18:17:44.507Z,6.32
2023-01-23T18:20:17.864Z,5.95
2023-01-23T18:22:45.827Z,6.15
2023-01-23T18:25:18.900Z,5.82
2023-01-23T18:27:50.859Z,7.20
2023-01-23T18:30:21.535Z,5.85
2023-01-23T18:33:25.644Z,6.38
2023-01-23T18:36:43.241Z,6.25
2023-01-23T18:39:16.436Z,6.10
2023-01-23T18:42:05.475Z,5.95
2023-01-23T18:44:34.715Z,5.93
2023-01-23T18:47:05.602Z,6.38
2023-01-23T18:49:33.551Z,6.30
2023-01-23T18:52:12.038Z,6.07
2023-01-23T18:54:42.631Z,5.75
2023-01-23T18:57:47.517Z,6.20
2023-01-23T19:00:28.144Z,5.72
2023-01-23T19:03:04.672Z,5.85
2023-01-23T19:05:33.750Z,5.90
2023-01-23T19:08:02.123Z,5.65
2023-01-23T19:10:47.089Z,6.07
2023-01-23T19:16:06.550Z,6.28
2023-01-23T19:18:47.101Z,5.68
2023-01-23T19:21:23.004Z,6.18
2023-01-23T19:24:06.755Z,6.05
2023-01-23T19:26:40.680Z,5.70
2023-01-23T19:29:21.040Z,5.32
2023-01-23T19:32:03.384Z,5.85
2023-01-23T19:34:32.072Z,6.10
2023-01-23T19:36:59.650Z,5.85
2023-01-23T19:39:26.919Z,5.80
2023-01-23T19:41:58.753Z,6.18
2023-01-23T19:44:28.740Z,5.78
2023-01-23T19:46:56.474Z,5.85
2023-01-23T19:49:25.113Z,6.55
2023-01-23T19:51:52.746Z,6.10
2023-01-23T19:54:22.278Z,6.45
2023-01-23T19:56:52.425Z,6.28
2023-01-23T19:59:20.816Z,6.20
2023-01-23T20:01:52.323Z,5.80
2023-01-23T20:04:22.361Z,5.90
2023-01-23T20:06:51.839Z,6.38
2023-01-23T20:09:19.742Z,6.70
2023-01-23T20:11:47.955Z,6.30
2023-01-23T20:14:15.296Z,5.80
2023-01-23T20:16:43.469Z,6.75
2023-01-23T20:19:16.529Z,5.80
2023-01-23T20:21:47.686Z,6.80
2023-01-23T20:24:16.652Z,5.80
2023-01-23T20:26:46.457Z,6.18
2023-01-23T20:29:18.342Z,6.28
2023-01-23T20:31:46.561Z,6.50
2023-01-23T20:34:14.281Z,5.97
2023-01-23T20:36:45.676Z,5.88
2023-01-23T20:39:13.509Z,6.30
2023-01-23T20:41:41.229Z,6.65
2023-01-23T20:44:08.621Z,6.50
2023-01-23T20:46:36.413Z,5.75
2023-01-23T20:49:03.738Z,6.50
2023-01-23T20:51:31.451Z,6.00
2023-01-23T20:53:59.198Z,6.05
2023-01-23T20:56:29.826Z,6.03
2023-01-23T20:59:16.553Z,6.00
2023-01-23T21:02:04.215Z,6.30
2023-01-23T21:04:35.074Z,6.47
2023-01-23T21:07:04.850Z,6.25
2023-01-23T21:09:33.211Z,6.40
2023-01-23T21:12:00.823Z,6.43
2023-01-23T21:14:28.200Z,6.95
2023-01-23T21:16:55.846Z,6.20
2023-01-23T21:19:23.170Z,7.10
2023-01-23T21:21:50.908Z,7.00
2023-01-23T21:24:18.215Z,6.95
2023-01-23T21:26:45.868Z,6.80
2023-01-23T21:29:13.283Z,7.05
2023-01-23T21:31:42.805Z,6.72
2023-01-23T21:34:13.132Z,6.43
2023-01-23T21:36:42.037Z,6.80
2023-01-23T21:39:12.912Z,7.05
2023-01-23T21:41:41.558Z,6.55
2023-01-23T21:44:12.559Z,7.18
2023-01-23T21:46:40.977Z,6.57
2023-01-23T21:49:08.443Z,7.15
2023-01-23T21:51:36.754Z,6.53
2023-01-23T21:54:04.402Z,7.40
2023-01-23T21:56:32.031Z,6.95
2023-01-23T21:58:59.330Z,7.32
2023-01-23T22:01:33.766Z,7.15
2023-01-23T22:04:02.682Z,7.57
2023-01-23T22:06:31.102Z,7.28
2023-01-23T22:08:58.979Z,7.25
2023-01-23T22:11:26.875Z,7.00
2023-01-23T22:13:54.830Z,7.35
2023-01-23T22:16:35.965Z,7.18
2023-01-23T22:19:18.784Z,7.22
2023-01-23T22:21:46.901Z,6.95
2023-01-23T22:24:15.179Z,7.35
2023-01-23T22:26:43.508Z,7.20
2023-01-23T22:29:12.792Z,7.43
2023-01-23T22:31:40.953Z,7.40
2023-01-23T22:34:08.781Z,7.50
2023-01-23T22:36:36.601Z,7.80
2023-01-23T22:39:04.273Z,7.47
2023-01-23T22:41:31.891Z,6.25
2023-01-23T22:43:59.587Z,7.45
2023-01-23T22:46:28.087Z,7.35
2023-01-23T22:48:55.751Z,7.53
2023-01-23T22:51:26.007Z,8.18
2023-01-23T22:53:54.954Z,7.53
2023-01-23T22:56:23.613Z,7.30
2023-01-23T22:58:52.944Z,7.75
2023-01-23T23:01:23.009Z,7.38
2023-01-23T23:03:50.488Z,7.82
2023-01-23T23:06:18.563Z,7.97
2023-01-23T23:08:47.919Z,7.82
2023-01-23T23:11:17.440Z,7.93
2023-01-23T23:13:45.099Z,7.75
2023-01-23T23:16:18.485Z,7.53
2023-01-23T23:18:47.902Z,7.32
2023-01-23T23:21:19.056Z,7.38
2023-01-23T23:23:47.220Z,7.40
2023-01-23T23:26:15.046Z,7.85
2023-01-23T23:28:42.876Z,7.65
2023-01-23T23:31:10.712Z,8.40
2023-01-23T23:33:38.347Z,7.53
2023-01-23T23:36:06.868Z,7.18
2023-01-23T23:38:34.292Z,7.53
2023-01-23T23:41:08.008Z,7.60
2023-01-23T23:43:35.476Z,7.80
2023-01-23T23:46:06.452Z,7.43
2023-01-23T23:48:36.783Z,8.13
2023-01-23T23:51:07.664Z,7.93
2023-01-23T23:53:36.515Z,7.57
2023-01-23T23:56:05.470Z,7.50
2023-01-23T23:58:36.401Z,7.57
